PWSweather.com
Personal Weather Stations
Station Observations
PHMDWX
Perry Hall, MD 21236

Perry Hall, MD 21236

Lat: 39.418318, Lon: -76.490039

Elevation: 305

Station Type: Davis Vantage Pro

Latest ConditionsUpdated 12:30:34 PM EDT Tuesday, Oct 21, 2014
Currently Today's Max Today's Min Today's Average
Temperature 67.5°F19.7°C 67.5°F19.7°C 46.1°F7.8°C 53.3°F11.8°C
Dew Point 50.7°F10.4°C 53.0°F11.7°C 45.3°F7.4°C 49.3°F9.6°C
Winds 2.9 mph WNW4.7 kmh WNW 4.4 mph WNW7.1 kmh WNW - 0.5 mph 0.8 kmh
Wind Gusts 3.0 mph4.8 kmh 7.0 mph11.3 kmh - -
Humidity 55% 99% 55% 88%
Pressure 29.82 in1009.8 mb 29.91 in1012.9 mb 29.82 in1009.8 mb -
Precipitation - 0.02 in0.5 mm - -
Hour Temp Dew Point Humidity Winds Wind Gusts Pressure Precip Precip Rate Daily Precip Total
12:30 PM 67.5°F19.7°C 50.7°F10.4°C 55% 2.9 mph WNW4.7 kmh WNW 3.0 mph4.8 kmh 29.82 in1009.8 mb 0.00 in0.0 mm 0.00 in/hr0.0 mm/hr 0.02 in0.5 mm
12:00 PM 67.2°F19.6°C 52.4°F11.3°C 59% 4.4 mph WNW7.1 kmh WNW 6.0 mph9.7 kmh 29.83 in1010.2 mb 0.00 in0.0 mm 0.00 in/hr0.0 mm/hr 0.02 in0.5 mm
11:30 AM 65.0°F18.3°C 52.6°F11.4°C 64% 1.4 mph NW2.3 kmh NW 7.0 mph11.3 kmh 29.84 in1010.5 mb 0.00 in0.0 mm 0.00 in/hr0.0 mm/hr 0.02 in0.5 mm
11:00 AM 60.2°F15.7°C 52.9°F11.6°C 77% Calm Calm -- 29.85 in1010.8 mb 0.00 in0.0 mm 0.00 in/hr0.0 mm/hr 0.02 in0.5 mm
10:30 AM 55.9°F13.3°C 52.4°F11.3°C 88% 1.1 mph SSE1.8 kmh SSE 3.0 mph4.8 kmh 29.85 in1010.8 mb 0.00 in0.0 mm 0.00 in/hr0.0 mm/hr 0.02 in0.5 mm
10:00 AM 53.8°F12.1°C 53.0°F11.7°C 97% Calm Calm -- 29.86 in1011.2 mb 0.00 in0.0 mm 0.00 in/hr0.0 mm/hr 0.02 in0.5 mm
09:30 AM 51.7°F10.9°C 51.4°F10.8°C 99% Calm Calm -- 29.86 in1011.2 mb 0.00 in0.0 mm 0.00 in/hr0.0 mm/hr 0.02 in0.5 mm
09:00 AM 48.8°F9.3°C 48.3°F9.1°C 98% Calm Calm -- 29.85 in1010.8 mb 0.00 in0.0 mm 0.00 in/hr0.0 mm/hr 0.02 in0.5 mm
08:30 AM 47.0°F8.3°C 46.5°F8.1°C 98% Calm Calm -- 29.85 in1010.8 mb 0.00 in0.0 mm 0.00 in/hr0.0 mm/hr 0.02 in0.5 mm
08:00 AM 46.1°F7.8°C 45.3°F7.4°C 97% Calm Calm 1.0 mph1.6 kmh 29.84 in1010.5 mb 0.00 in0.0 mm 0.00 in/hr0.0 mm/hr 0.02 in0.5 mm
07:30 AM 46.2°F7.9°C 45.4°F7.4°C 97% Calm Calm -- 29.84 in1010.5 mb 0.00 in0.0 mm 0.00 in/hr0.0 mm/hr 0.02 in0.5 mm
07:00 AM 46.7°F8.2°C 45.9°F7.7°C 97% Calm Calm 1.0 mph1.6 kmh 29.84 in1010.5 mb 0.00 in0.0 mm 0.00 in/hr0.0 mm/hr 0.02 in0.5 mm
06:30 AM 47.4°F8.6°C 46.3°F7.9°C 96% Calm Calm -- 29.83 in1010.2 mb 0.00 in0.0 mm 0.00 in/hr0.0 mm/hr 0.02 in0.5 mm
06:00 AM 48.5°F9.2°C 47.4°F8.6°C 96% Calm Calm -- 29.84 in1010.5 mb 0.00 in0.0 mm 0.00 in/hr0.0 mm/hr 0.02 in0.5 mm
05:30 AM 49.4°F9.7°C 48.3°F9.1°C 96% Calm Calm -- 29.84 in1010.5 mb 0.00 in0.0 mm 0.00 in/hr0.0 mm/hr 0.02 in0.5 mm
05:00 AM 50.1°F10.1°C 49.0°F9.4°C 96% Calm Calm -- 29.84 in1010.5 mb 0.00 in0.0 mm 0.00 in/hr0.0 mm/hr 0.02 in0.5 mm
04:30 AM 50.8°F10.4°C 49.7°F9.8°C 96% Calm Calm -- 29.84 in1010.5 mb 0.00 in0.0 mm 0.00 in/hr0.0 mm/hr 0.02 in0.5 mm
04:00 AM 51.3°F10.7°C 49.9°F9.9°C 95% Calm Calm -- 29.84 in1010.5 mb 0.00 in0.0 mm 0.00 in/hr0.0 mm/hr 0.02 in0.5 mm
03:30 AM 51.6°F10.9°C 50.2°F10.1°C 95% Calm Calm -- 29.85 in1010.8 mb 0.00 in0.0 mm 0.00 in/hr0.0 mm/hr 0.02 in0.5 mm
03:00 AM 52.2°F11.2°C 50.5°F10.3°C 94% Calm Calm -- 29.86 in1011.2 mb 0.00 in0.0 mm 0.00 in/hr0.0 mm/hr 0.02 in0.5 mm
02:30 AM 52.9°F11.6°C 50.7°F10.4°C 92% Calm Calm -- 29.87 in1011.5 mb 0.00 in0.0 mm 0.00 in/hr0.0 mm/hr 0.02 in0.5 mm
02:00 AM 54.2°F12.3°C 50.7°F10.4°C 88% Calm Calm -- 29.88 in1011.9 mb 0.02 in0.5 mm 0.04 in/hr1.0 mm/hr 0.02 in0.5 mm
01:30 AM 55.6°F13.1°C 48.5°F9.2°C 77% 0.3 mph SSE0.5 kmh SSE 2.0 mph3.2 kmh 29.89 in1012.2 mb 0.00 in0.0 mm 0.00 in/hr0.0 mm/hr 0.00 in0.0 mm
01:00 AM 55.1°F12.8°C 47.0°F8.3°C 74% 1.2 mph SSE1.9 kmh SSE 2.0 mph3.2 kmh 29.90 in1012.5 mb 0.00 in0.0 mm 0.00 in/hr0.0 mm/hr 0.00 in0.0 mm
12:30 AM 54.7°F12.6°C 48.3°F9.1°C 79% 0.6 mph S1.0 kmh S 1.0 mph1.6 kmh 29.91 in1012.9 mb 0.00 in0.0 mm 0.00 in/hr0.0 mm/hr 0.00 in0.0 mm
12:00 AM 55.1°F12.8°C 47.7°F8.7°C 76% Calm Calm -- 29.91 in1012.9 mb 0.00 in0.0 mm 0.00 in/hr0.0 mm/hr 0.00 in0.0 mm